Latest Weather Observations for Sydney Harbour

IDN60901

Issued at 4:51 am EDT Thursday 2 March 2017 (issued every 10 minutes, with the page automatically refreshed every 10 minutes)

About weather observations | Map of Sydney area stations | Latest observations for Sydney area | Other Formats
Station Details ID: 066196 Name: WEDDING CAKE WEST Lat: -33.84 Lon: 151.26 Height: 6.0 m
Data from the previous 72 hours. | See also: Recent months at Sydney Harbour
Date/Time
EDT
Temp
°C
App
Temp
°C
Dew
Point
°C
Rel
Hum
%
Delta-T
°C
Wind Press
QNH
hPa
Press
MSL
hPa
Rain since
9am
mm
Dir  Spd
km/h
Gust
km/h
Spd
kts
Gust
kts
02/04:30am 21.1 - - - - E 9 11 5 6 - - -
02/04:00am 21.5 - - - - E 15 17 8 9 - - -
02/03:30am 21.3 - - - - E 13 17 7 9 - - -
02/03:00am 21.3 - - - - E 13 15 7 8 - - -
02/02:30am 21.4 - - - - E 13 15 7 8 - - -
02/02:00am 21.4 - - - - E 13 15 7 8 - - -
02/01:30am 21.3 - - - - E 11 13 6 7 - - -
02/01:00am 21.4 - - - - E 11 13 6 7 - - -
02/12:30am 21.3 - - - - ENE 9 13 5 7 - - -
02/12:00am 21.6 - - - - ENE 7 11 4 6 - - -
 
Date/Time
EDT
Temp
°C
App
Temp
°C
Dew
Point
°C
Rel
Hum
%
Delta-T
°C
Wind Press
QNH
hPa
Press
MSL
hPa
Rain since
9am
mm
Dir  Spd
km/h
Gust
km/h
Spd
kts
Gust
kts
01/11:30pm 21.5 - - - - ENE 13 15 7 8 - - -
01/11:00pm 21.5 - - - - E 20 26 11 14 - - -
01/10:37pm 22.9 - - - - SE 17 35 9 19 - - -
01/10:30pm 23.8 - - - - SE 9 15 5 8 - - -
01/10:00pm 23.7 - - - - SE 13 17 7 9 - - -
01/09:30pm 22.8 - - - - SE 7 11 4 6 - - -
01/09:00pm 23.2 - - - - SE 6 11 3 6 - - -
01/08:30pm 23.6 - - - - SE 9 11 5 6 - - -
01/08:00pm 23.6 - - - - SE 9 11 5 6 - - -
01/07:30pm 23.7 - - - - SE 13 17 7 9 - - -
01/07:00pm 23.7 - - - - SE 13 19 7 10 - - -
01/06:30pm 24.3 - - - - SSE 13 17 7 9 - - -
01/06:00pm 23.9 - - - - SSE 15 20 8 11 - - -
01/05:30pm 23.8 - - - - SE 13 17 7 9 - - -
01/05:00pm 24.0 - - - - SSE 17 20 9 11 - - -
01/04:30pm 24.0 - - - - SE 19 24 10 13 - - -
01/04:00pm 24.4 - - - - SSE 19 24 10 13 - - -
01/03:30pm 23.0 - - - - SSE 22 30 12 16 - - -
01/03:00pm 24.0 - - - - SE 20 28 11 15 - - -
01/02:30pm 24.0 - - - - SE 20 26 11 14 - - -
01/02:00pm 24.6 - - - - SE 17 20 9 11 - - -
01/01:30pm 24.1 - - - - SE 17 22 9 12 - - -
01/01:00pm 23.3 - - - - S 20 28 11 15 - - -
01/12:30pm 23.3 - - - - SE 17 20 9 11 - - -
01/12:00pm 23.2 - - - - SE 6 9 3 5 - - -
01/11:30am 22.7 - - - - CALM 0 0 0 0 - - -
01/11:00am 21.9 - - - - SE 7 9 4 5 - - -
01/10:30am 21.9 - - - - SE 13 15 7 8 - - -
01/10:00am 21.5 - - - - ESE 15 20 8 11 - - -
01/09:30am 21.7 - - - - SE 15 20 8 11 - - -
01/09:00am 21.4 - - - - ENE 9 17 5 9 - - -
01/08:30am 21.0 - - - - ENE 11 15 6 8 - - -
01/08:00am 20.9 - - - - NE 30 41 16 22 - - -
01/07:30am 21.7 - - - - E 30 43 16 23 - - -
01/07:00am 23.2 - - - - ESE 28 35 15 19 - - -
01/06:30am 22.6 - - - - SE 19 24 10 13 - - -
01/06:00am 23.0 - - - - ESE 22 30 12 16 - - -
01/05:30am 22.8 - - - - E 15 30 8 16 - - -
01/05:00am 22.7 - - - - E 17 20 9 11 - - -
01/04:30am 22.5 - - - - E 17 24 9 13 - - -
01/04:07am 21.9 - - - - ENE 33 52 18 28 - - -
01/04:00am 21.1 - - - - E 41 52 22 28 - - -
01/03:53am 22.5 - - - - ESE 33 50 18 27 - - -
01/03:30am 23.0 - - - - SE 24 33 13 18 - - -
01/03:00am 23.5 - - - - SE 26 35 14 19 - - -
01/02:30am 23.4 - - - - SE 26 33 14 18 - - -
01/02:00am 23.7 - - - - ESE 24 32 13 17 - - -
01/01:30am 23.6 - - - - SSE 19 30 10 16 - - -
01/01:00am 23.5 - - - - SE 20 28 11 15 - - -
01/12:30am 23.6 - - - - SE 22 28 12 15 - - -
01/12:00am 23.6 - - - - SE 22 30 12 16 - - -
 
Date/Time
EDT
Temp
°C
App
Temp
°C
Dew
Point
°C
Rel
Hum
%
Delta-T
°C
Wind Press
QNH
hPa
Press
MSL
hPa
Rain since
9am
mm
Dir  Spd
km/h
Gust
km/h
Spd
kts
Gust
kts
28/11:30pm 23.7 - - - - SE 24 30 13 16 - - -
28/11:00pm 23.8 - - - - SE 24 32 13 17 - - -
28/10:30pm 23.8 - - - - SE 24 32 13 17 - - -
28/10:00pm 23.8 - - - - SE 22 28 12 15 - - -
28/09:30pm 23.8 - - - - SE 20 26 11 14 - - -
28/09:00pm 23.9 - - - - SE 20 28 11 15 - - -
28/08:30pm 23.8 - - - - SE 20 28 11 15 - - -
28/08:00pm 23.9 - - - - SE 19 28 10 15 - - -
28/07:30pm 23.9 - - - - ESE 19 28 10 15 - - -
28/07:00pm 24.0 - - - - ESE 20 28 11 15 - - -
28/06:30pm 24.2 - - - - ESE 20 26 11 14 - - -
28/06:00pm 24.5 - - - - ESE 20 28 11 15 - - -
28/05:30pm 24.0 - - - - E 13 26 7 14 - - -
28/05:00pm 23.9 - - - - E 9 13 5 7 - - -
28/04:30pm 22.3 - - - - E 7 7 4 4 - - -
28/04:00pm 20.8 - - - - E 11 15 6 8 - - -
28/03:30pm 20.6 - - - - E 20 41 11 22 - - -
28/03:00pm 24.6 - - - - E 17 20 9 11 - - -
28/02:30pm 24.4 - - - - E 17 24 9 13 - - -
28/02:00pm 23.8 - - - - ENE 19 26 10 14 - - -
28/01:30pm 23.4 - - - - NE 22 26 12 14 - - -
28/01:00pm 23.6 - - - - ENE 20 28 11 15 - - -
28/12:30pm 23.3 - - - - ENE 22 30 12 16 - - -
28/12:00pm 23.4 - - - - E 24 32 13 17 - - -
28/11:30am 23.4 - - - - E 26 33 14 18 - - -
28/11:00am 22.8 - - - - ENE 33 41 18 22 - - -
28/10:50am 22.7 - - - - E 30 44 16 24 - - -
28/10:30am 23.8 - - - - ESE 24 28 13 15 - - -
28/10:00am 24.2 - - - - E 17 22 9 12 - - -
28/09:30am 23.9 - - - - E 20 24 11 13 - - -
28/09:00am 24.1 - - - - E 19 26 10 14 - - -
28/08:30am 24.1 - - - - E 20 26 11 14 - - -
28/08:00am 23.7 - - - - E 20 24 11 13 - - -
28/07:30am 23.4 - - - - E 20 26 11 14 - - -
28/07:00am 23.2 - - - - E 19 22 10 12 - - -
28/06:30am 23.1 - - - - E 22 26 12 14 - - -
28/06:00am 23.1 - - - - E 24 32 13 17 - - -
28/05:30am 23.0 - - - - ESE 22 28 12 15 - - -
28/05:00am 23.0 - - - - E 20 28 11 15 - - -
28/04:30am 22.9 - - - - E 24 32 13 17 - - -
28/04:00am 22.9 - - - - E 22 30 12 16 - - -
28/03:30am 22.7 - - - - ESE 20 24 11 13 - - -
28/03:00am 22.6 - - - - E 17 22 9 12 - - -
28/02:30am 22.6 - - - - ESE 20 26 11 14 - - -
28/02:00am 22.9 - - - - ESE 22 26 12 14 - - -
28/01:30am 23.1 - - - - ESE 19 24 10 13 - - -
28/01:00am 23.3 - - - - ESE 20 24 11 13 - - -
28/12:30am 23.1 - - - - SE 15 20 8 11 - - -
28/12:00am 23.4 - - - - ESE 20 26 11 14 - - -
 
Date/Time
EDT
Temp
°C
App
Temp
°C
Dew
Point
°C
Rel
Hum
%
Delta-T
°C
Wind Press
QNH
hPa
Press
MSL
hPa
Rain since
9am
mm
Dir  Spd
km/h
Gust
km/h
Spd
kts
Gust
kts
27/11:30pm 23.1 - - - - SE 15 19 8 10 - - -
27/11:00pm 22.4 - - - - S 11 15 6 8 - - -
27/10:30pm 22.8 - - - - SSE 15 20 8 11 - - -
27/10:00pm 22.4 - - - - S 13 22 7 12 - - -
27/09:30pm 21.4 - - - - S 24 35 13 19 - - -
27/09:00pm 21.4 - - - - SSW 24 35 13 19 - - -
27/08:30pm 22.5 - - - - S 20 32 11 17 - - -
27/08:00pm 22.4 - - - - S 26 32 14 17 - - -
27/07:30pm 22.6 - - - - S 26 32 14 17 - - -
27/07:00pm 22.8 - - - - S 32 39 17 21 - - -
27/06:30pm 23.1 - - - - S 33 39 18 21 - - -
27/06:00pm 23.1 - - - - S 30 37 16 20 - - -
27/05:30pm 23.8 - - - - S 28 37 15 20 - - -
27/05:00pm 23.9 - - - - S 28 35 15 19 - - -
27/04:30pm 24.0 - - - - S 28 35 15 19 - - -
27/04:00pm 23.9 - - - - S 28 35 15 19 - - -
27/03:30pm 23.7 - - - - SSE 26 35 14 19 - - -
27/03:00pm 24.1 - - - - SSE 26 35 14 19 - - -
27/02:30pm 24.1 - - - - SSE 26 33 14 18 - - -
27/02:00pm 24.0 - - - - SE 24 32 13 17 - - -
27/01:30pm 23.9 - - - - SE 24 30 13 16 - - -
27/01:00pm 23.5 - - - - SE 22 32 12 17 - - -
27/12:30pm 23.2 - - - - SE 26 32 14 17 - - -
27/12:00pm 23.3 - - - - SE 24 32 13 17 - - -
27/11:30am 23.3 - - - - SE 26 33 14 18 - - -
27/11:00am 23.0 - - - - SE 22 28 12 15 - - -
27/10:30am 23.3 - - - - SE 20 28 11 15 - - -
27/10:00am 23.0 - - - - SE 24 30 13 16 - - -
27/09:30am 22.9 - - - - SE 24 35 13 19 - - -
27/09:00am 23.1 - - - - SE 24 32 13 17 - - -
27/08:30am 23.0 - - - - SE 22 28 12 15 - - -
27/08:00am 22.5 - - - - SE 22 30 12 16 - - -
27/07:30am 22.6 - - - - SE 22 30 12 16 - - -
27/07:00am 22.4 - - - - ESE 22 30 12 16 - - -
27/06:30am 22.4 - - - - ESE 22 30 12 16 - - -
27/06:00am 22.3 - - - - ESE 22 32 12 17 - - -
27/05:30am 22.4 - - - - ESE 26 32 14 17 - - -
27/05:00am 22.3 - - - - ESE 30 37 16 20 - - -

Latest Capital City Observations: Canberra | Sydney | Melbourne | Brisbane | Adelaide | Perth | Hobart | Darwin

Other Formats:

Comma delimited format used in spreadsheet applications
http://www.bom.gov.au/fwo/IDN60901/IDN60901.95766.axf

JavaScript Object Notation format (JSON) in row-major order
http://www.bom.gov.au/fwo/IDN60901/IDN60901.95766.json